createdAt,value
2018-09-18T00:00:54.679Z,5.37
2018-09-18T00:03:22.949Z,5.90
2018-09-18T00:05:51.193Z,5.93
2018-09-18T00:08:19.465Z,5.77
2018-09-18T00:10:47.841Z,6.10
2018-09-18T00:13:16.171Z,5.57
2018-09-18T00:15:44.433Z,5.93
2018-09-18T00:18:12.705Z,6.17
2018-09-18T00:20:41.004Z,6.13
2018-09-18T00:23:09.268Z,5.97
2018-09-18T00:25:38.018Z,6.50
2018-09-18T00:28:06.553Z,6.57
2018-09-18T00:30:34.804Z,6.37
2018-09-18T00:33:03.077Z,6.20
2018-09-18T00:35:31.355Z,6.53
2018-09-18T00:37:59.668Z,7.30
2018-09-18T00:40:27.950Z,6.40
2018-09-18T00:42:56.238Z,5.90
2018-09-18T00:45:24.552Z,6.40
2018-09-18T00:47:52.821Z,6.40
2018-09-18T00:50:21.155Z,6.50
2018-09-18T00:52:49.457Z,6.93
2018-09-18T00:55:17.746Z,6.10
2018-09-18T00:57:45.998Z,6.63
2018-09-18T01:00:14.267Z,6.77
2018-09-18T01:02:42.608Z,6.37
2018-09-18T01:05:10.895Z,6.47
2018-09-18T01:07:39.186Z,6.77
2018-09-18T01:10:07.578Z,6.13
2018-09-18T01:12:35.858Z,6.00
2018-09-18T01:15:04.273Z,5.83
2018-09-18T01:17:32.518Z,6.60
2018-09-18T01:20:00.892Z,6.00
2018-09-18T01:22:29.169Z,6.10
2018-09-18T01:24:57.471Z,6.07
2018-09-18T01:27:25.734Z,6.67
2018-09-18T01:29:54.011Z,6.40
2018-09-18T01:32:22.258Z,5.97
2018-09-18T01:34:56.521Z,6.00
2018-09-18T01:37:24.999Z,6.43
2018-09-18T01:39:53.290Z,6.67
2018-09-18T01:42:21.541Z,6.27
2018-09-18T01:44:49.826Z,6.23
2018-09-18T01:47:18.092Z,6.60
2018-09-18T01:49:46.417Z,6.57
2018-09-18T01:52:14.666Z,6.63
2018-09-18T01:54:42.926Z,6.50
2018-09-18T01:57:11.314Z,6.47
2018-09-18T01:59:39.608Z,6.50
2018-09-18T02:02:07.874Z,6.60
2018-09-18T02:04:36.255Z,6.60
2018-09-18T02:07:04.560Z,7.20
2018-09-18T02:09:32.842Z,6.63
2018-09-18T02:12:01.290Z,7.53
2018-09-18T02:14:29.574Z,6.77
2018-09-18T02:16:57.845Z,6.93
2018-09-18T02:19:26.107Z,7.20
2018-09-18T02:21:54.365Z,6.73
2018-09-18T02:24:22.678Z,7.27
2018-09-18T02:26:50.914Z,6.57
2018-09-18T02:29:19.192Z,6.40
2018-09-18T02:31:47.449Z,6.70
2018-09-18T02:34:15.723Z,6.53
2018-09-18T02:36:43.977Z,6.87
2018-09-18T02:39:13.182Z,7.00
2018-09-18T02:41:42.259Z,7.83
2018-09-18T02:44:10.552Z,7.00
2018-09-18T02:46:38.925Z,7.20
2018-09-18T02:49:07.399Z,7.30
2018-09-18T02:51:35.642Z,6.63
2018-09-18T02:54:03.941Z,7.53
2018-09-18T02:56:32.188Z,7.37
2018-09-18T02:59:00.470Z,7.23
2018-09-18T03:01:28.791Z,7.03
2018-09-18T03:03:57.167Z,7.17
2018-09-18T03:06:25.558Z,7.50
2018-09-18T03:08:53.835Z,7.27
2018-09-18T03:11:22.177Z,6.90
2018-09-18T03:13:50.410Z,7.40
2018-09-18T03:16:18.763Z,6.83
2018-09-18T03:18:47.082Z,6.70
2018-09-18T03:21:15.350Z,7.23
2018-09-18T03:23:43.605Z,7.20
2018-09-18T03:26:11.889Z,7.30
2018-09-18T03:28:40.247Z,7.30
2018-09-18T03:31:08.509Z,7.40
2018-09-18T03:33:36.759Z,7.80
2018-09-18T03:36:05.076Z,7.10
2018-09-18T03:38:33.324Z,7.17
2018-09-18T03:41:01.606Z,7.53
2018-09-18T03:43:30.018Z,7.20
2018-09-18T03:45:58.303Z,7.40
2018-09-18T03:48:26.595Z,7.60
2018-09-18T03:50:54.917Z,7.43
2018-09-18T03:53:23.176Z,7.67
2018-09-18T03:55:51.504Z,7.43
2018-09-18T03:58:19.752Z,7.80
2018-09-18T04:00:48.229Z,8.93
2018-09-18T04:03:16.474Z,8.17
2018-09-18T04:05:44.823Z,7.83
2018-09-18T04:08:13.079Z,8.23
2018-09-18T04:10:41.441Z,7.20
2018-09-18T04:13:10.049Z,7.80
2018-09-18T04:15:38.569Z,7.97
2018-09-18T04:18:06.927Z,8.03
2018-09-18T04:20:35.306Z,7.90
2018-09-18T04:23:03.551Z,8.20
2018-09-18T04:25:31.825Z,8.33
2018-09-18T04:28:00.079Z,8.70
2018-09-18T04:30:28.374Z,8.53
2018-09-18T04:32:56.602Z,8.13
2018-09-18T04:35:24.986Z,8.83
2018-09-18T04:37:53.230Z,7.77
2018-09-18T04:40:21.526Z,9.37
2018-09-18T04:42:49.804Z,8.70
2018-09-18T04:45:18.167Z,8.57
2018-09-18T04:47:46.407Z,8.57
2018-09-18T04:50:14.666Z,8.80
2018-09-18T04:52:43.014Z,9.00
2018-09-18T04:55:11.382Z,8.80
2018-09-18T04:57:39.736Z,9.07
2018-09-18T05:00:08.687Z,9.43
2018-09-18T05:02:37.256Z,9.20
2018-09-18T05:05:05.930Z,8.43
2018-09-18T05:07:34.329Z,9.10
2018-09-18T05:10:02.818Z,8.83
2018-09-18T05:12:31.096Z,9.00
2018-09-18T05:14:59.381Z,8.20
2018-09-18T05:17:27.694Z,8.67
2018-09-18T05:19:55.957Z,8.67
2018-09-18T05:22:24.289Z,8.33
2018-09-18T05:24:53.282Z,8.33
2018-09-18T05:27:21.673Z,8.63
2018-09-18T05:29:50.042Z,8.70
2018-09-18T05:32:18.295Z,8.77
2018-09-18T05:34:47.004Z,9.23
2018-09-18T05:37:15.358Z,9.03
2018-09-18T05:39:43.613Z,8.57
2018-09-18T05:42:11.900Z,9.17
2018-09-18T05:44:40.185Z,8.53
2018-09-18T05:47:09.158Z,8.43
2018-09-18T05:49:38.333Z,8.53
2018-09-18T05:52:06.813Z,8.70
2018-09-18T05:54:35.176Z,8.23
2018-09-18T05:57:03.518Z,8.87
2018-09-18T05:59:31.806Z,8.97
2018-09-18T06:02:00.094Z,9.60
2018-09-18T06:04:28.335Z,9.40
2018-09-18T06:06:56.591Z,9.00
2018-09-18T06:09:24.897Z,8.80
2018-09-18T06:12:00.125Z,9.27
2018-09-18T06:14:28.412Z,8.63
2018-09-18T06:16:56.734Z,8.57
2018-09-18T06:19:24.976Z,8.60
2018-09-18T06:21:53.242Z,9.03
2018-09-18T06:24:21.548Z,8.70
2018-09-18T06:26:49.803Z,9.37
2018-09-18T06:29:18.078Z,9.43
2018-09-18T06:31:46.358Z,10.03
2018-09-18T06:34:14.674Z,10.03
2018-09-18T06:36:42.942Z,8.77
2018-09-18T06:39:11.969Z,9.23
2018-09-18T06:41:40.627Z,9.20
2018-09-18T06:44:08.908Z,8.80
2018-09-18T06:46:37.354Z,9.40
2018-09-18T06:49:05.743Z,9.57
2018-09-18T06:51:35.016Z,9.50
2018-09-18T06:54:03.358Z,9.20
2018-09-18T06:56:31.737Z,9.47
2018-09-18T06:58:59.990Z,9.00
2018-09-18T07:01:28.285Z,9.17
2018-09-18T07:03:56.674Z,9.20
2018-09-18T07:06:24.910Z,9.07
2018-09-18T07:08:53.232Z,9.27
2018-09-18T07:11:21.710Z,9.50
2018-09-18T07:13:50.110Z,10.23
2018-09-18T07:16:18.397Z,10.10
2018-09-18T07:18:46.745Z,9.67
2018-09-18T07:21:15.115Z,10.60
2018-09-18T07:23:43.382Z,9.53
2018-09-18T07:26:11.630Z,10.13
2018-09-18T07:28:39.931Z,11.10
2018-09-18T07:31:08.235Z,10.00
2018-09-18T07:33:36.781Z,10.00
2018-09-18T07:36:05.139Z,9.53
2018-09-18T07:38:33.475Z,10.00
2018-09-18T07:41:02.077Z,9.57
2018-09-18T07:43:30.361Z,9.87
2018-09-18T07:45:58.662Z,8.93
2018-09-18T07:48:31.147Z,9.27
2018-09-18T07:50:59.422Z,9.17
2018-09-18T07:53:27.702Z,8.93
2018-09-18T07:55:55.956Z,8.90
2018-09-18T07:58:24.223Z,8.43
2018-09-18T08:00:52.525Z,8.60
2018-09-18T08:03:20.918Z,8.90
2018-09-18T08:05:49.121Z,8.13
2018-09-18T08:08:17.634Z,8.47
2018-09-18T08:10:45.967Z,8.33
2018-09-18T08:13:14.299Z,8.90
2018-09-18T08:15:42.855Z,8.27
2018-09-18T08:18:11.187Z,8.30
2018-09-18T08:20:39.453Z,8.03
2018-09-18T08:23:07.798Z,7.90
2018-09-18T08:25:36.089Z,7.47
2018-09-18T08:28:04.348Z,8.23
2018-09-18T08:30:32.620Z,7.83
2018-09-18T08:33:00.912Z,8.33
2018-09-18T08:35:29.171Z,7.80
2018-09-18T08:37:57.780Z,7.83
2018-09-18T08:40:26.072Z,8.30
2018-09-18T08:42:54.461Z,8.00
2018-09-18T08:45:22.781Z,8.27
2018-09-18T08:47:51.050Z,9.00
2018-09-18T08:50:19.306Z,8.97
2018-09-18T08:52:47.592Z,8.53
2018-09-18T08:55:15.895Z,8.43
2018-09-18T08:57:44.162Z,8.60
2018-09-18T09:00:12.474Z,7.70
2018-09-18T09:02:40.746Z,8.50
2018-09-18T09:05:09.073Z,7.63
2018-09-18T09:07:37.377Z,7.40
2018-09-18T09:10:05.765Z,7.17
2018-09-18T09:12:34.182Z,6.97
2018-09-18T09:15:02.500Z,6.87
2018-09-18T09:17:30.717Z,6.78
2018-09-18T09:19:58.974Z,7.42
2018-09-18T09:22:27.235Z,6.62
2018-09-18T09:24:55.518Z,6.65
2018-09-18T09:27:23.830Z,6.40
2018-09-18T09:29:52.193Z,7.03
2018-09-18T09:32:20.443Z,5.47
2018-09-18T09:34:48.665Z,5.60
2018-09-18T09:37:17.050Z,5.65
2018-09-18T09:39:45.254Z,5.70
2018-09-18T09:42:13.541Z,5.80
2018-09-18T09:44:41.874Z,5.40
2018-09-18T09:47:10.105Z,5.60
2018-09-18T09:49:38.433Z,5.80
2018-09-18T09:52:06.742Z,6.03
2018-09-18T09:54:35.050Z,5.53
2018-09-18T09:57:03.366Z,6.03
2018-09-18T09:59:31.667Z,5.73
2018-09-18T10:02:05.259Z,5.97
2018-09-18T10:04:33.579Z,6.20
2018-09-18T10:07:01.901Z,6.97
2018-09-18T10:09:30.183Z,6.77
2018-09-18T10:11:58.560Z,6.80
2018-09-18T10:14:26.895Z,6.23
2018-09-18T10:16:55.119Z,6.53
2018-09-18T10:19:23.414Z,5.70
2018-09-18T10:21:51.976Z,5.90
2018-09-18T10:24:20.315Z,6.17
2018-09-18T10:26:48.697Z,6.33
2018-09-18T10:29:17.020Z,6.70
2018-09-18T10:31:45.340Z,6.40
2018-09-18T10:34:13.613Z,6.30
2018-09-18T10:36:41.898Z,5.90
2018-09-18T10:39:11.279Z,5.90
2018-09-18T10:41:39.633Z,5.93
2018-09-18T10:44:07.894Z,6.30
2018-09-18T10:46:36.711Z,6.43
2018-09-18T10:49:05.091Z,6.10
2018-09-18T10:51:34.527Z,6.10
2018-09-18T10:54:02.804Z,6.33
2018-09-18T10:56:31.113Z,5.90
2018-09-18T10:58:59.414Z,6.27
2018-09-18T11:01:27.682Z,6.60
2018-09-18T11:03:55.969Z,6.80
2018-09-18T11:06:24.233Z,6.60
2018-09-18T11:08:52.631Z,6.60
2018-09-18T11:11:21.000Z,6.97
2018-09-18T11:13:49.274Z,6.53
2018-09-18T11:16:17.523Z,6.20
2018-09-18T11:18:45.828Z,6.60
2018-09-18T11:21:14.121Z,6.60
2018-09-18T11:23:42.464Z,5.87
2018-09-18T11:26:10.780Z,5.93
2018-09-18T11:28:39.073Z,6.90
2018-09-18T11:31:07.334Z,6.33
2018-09-18T11:33:35.714Z,6.07
2018-09-18T11:36:03.993Z,5.97
2018-09-18T11:38:32.295Z,6.70
2018-09-18T11:41:00.645Z,6.50
2018-09-18T11:43:28.886Z,6.30
2018-09-18T11:45:57.358Z,6.47
2018-09-18T11:48:25.423Z,5.93
2018-09-18T11:50:53.705Z,6.37
2018-09-18T11:53:22.033Z,6.50
2018-09-18T11:55:50.312Z,6.50
2018-09-18T11:58:18.637Z,6.80
2018-09-18T12:00:46.895Z,6.70
2018-09-18T12:03:15.268Z,6.87
2018-09-18T12:05:43.525Z,7.17
2018-09-18T12:08:11.794Z,6.03
2018-09-18T12:10:40.074Z,6.00
2018-09-18T12:13:08.456Z,6.10
2018-09-18T12:15:36.725Z,6.57
2018-09-18T12:18:04.976Z,6.50
2018-09-18T12:20:33.238Z,6.40
2018-09-18T12:23:01.508Z,6.40
2018-09-18T12:25:29.804Z,6.93
2018-09-18T12:27:58.048Z,6.43
2018-09-18T12:30:26.338Z,6.50
2018-09-18T12:32:54.675Z,6.87
2018-09-18T12:35:23.008Z,6.40
2018-09-18T12:37:51.243Z,6.30
2018-09-18T12:40:19.522Z,6.67
2018-09-18T12:42:47.844Z,6.77
2018-09-18T12:45:16.079Z,6.80
2018-09-18T12:47:44.337Z,6.17
2018-09-18T12:50:12.909Z,6.33
2018-09-18T12:52:40.893Z,6.23
2018-09-18T12:55:09.203Z,6.80
2018-09-18T12:57:37.679Z,6.00
2018-09-18T13:00:06.225Z,5.83
2018-09-18T13:02:34.620Z,5.97
2018-09-18T13:05:02.924Z,6.97
2018-09-18T13:07:31.210Z,6.60
2018-09-18T13:09:59.486Z,5.90
2018-09-18T13:12:27.769Z,5.80
2018-09-18T13:14:56.030Z,5.93
2018-09-18T13:17:24.292Z,7.60
2018-09-18T13:19:52.564Z,6.53
2018-09-18T13:22:20.817Z,6.03
2018-09-18T13:24:49.070Z,6.10
2018-09-18T13:27:17.338Z,6.17
2018-09-18T13:29:45.675Z,6.00
2018-09-18T13:32:13.947Z,5.80
2018-09-18T13:34:42.255Z,5.83
2018-09-18T13:37:10.605Z,5.60
2018-09-18T13:39:38.874Z,6.33
2018-09-18T13:42:07.138Z,5.90
2018-09-18T13:44:35.386Z,6.60
2018-09-18T13:47:03.645Z,5.30
2018-09-18T13:49:31.924Z,5.97
2018-09-18T13:52:00.324Z,5.97
2018-09-18T13:54:28.544Z,5.53
2018-09-18T13:56:56.826Z,5.47
2018-09-18T13:59:25.104Z,5.70
2018-09-18T14:01:53.421Z,6.07
2018-09-18T14:04:21.841Z,5.73
2018-09-18T14:06:50.144Z,5.73
2018-09-18T14:09:18.485Z,6.10
2018-09-18T14:11:46.799Z,5.83
2018-09-18T14:14:15.122Z,5.83
2018-09-18T14:16:43.365Z,6.10
2018-09-18T14:19:11.653Z,6.07
2018-09-18T14:21:39.939Z,5.57
2018-09-18T14:24:08.259Z,6.50
2018-09-18T14:26:36.592Z,5.87
2018-09-18T14:29:04.806Z,5.67
2018-09-18T14:31:33.101Z,5.40
2018-09-18T14:34:01.339Z,5.90
2018-09-18T14:36:29.623Z,5.37
2018-09-18T14:38:57.878Z,5.73
2018-09-18T14:41:26.210Z,5.53
2018-09-18T14:43:54.524Z,5.63
2018-09-18T14:46:22.819Z,5.50
2018-09-18T14:48:51.173Z,5.20
2018-09-18T14:51:19.544Z,5.73
2018-09-18T14:53:47.730Z,5.30
2018-09-18T14:56:16.045Z,5.47
2018-09-18T14:58:44.320Z,5.20
2018-09-18T15:01:12.606Z,5.23
2018-09-18T15:03:40.875Z,5.43
2018-09-18T15:06:09.167Z,5.10
2018-09-18T15:08:37.417Z,5.30
2018-09-18T15:11:05.714Z,5.23
2018-09-18T15:13:33.998Z,5.27
2018-09-18T15:16:02.320Z,4.70
2018-09-18T15:18:30.698Z,5.20
2018-09-18T15:20:59.075Z,4.67
2018-09-18T15:23:27.333Z,5.27
2018-09-18T15:25:55.582Z,4.63
2018-09-18T15:28:23.842Z,5.17
2018-09-18T15:30:52.190Z,5.30
2018-09-18T15:33:20.482Z,5.30
2018-09-18T15:35:48.726Z,4.97
2018-09-18T15:38:16.987Z,5.30
2018-09-18T15:40:45.238Z,5.33
2018-09-18T15:43:13.541Z,5.10
2018-09-18T15:45:41.873Z,5.80
2018-09-18T15:48:10.119Z,4.90
2018-09-18T15:50:38.351Z,5.53
2018-09-18T15:53:06.643Z,5.37
2018-09-18T15:55:34.886Z,5.17
2018-09-18T15:58:03.162Z,5.40
2018-09-18T16:00:31.400Z,5.40
2018-09-18T16:02:59.658Z,5.53
2018-09-18T16:05:27.902Z,5.40
2018-09-18T16:07:56.246Z,5.57
2018-09-18T16:10:24.482Z,5.70
2018-09-18T16:12:52.800Z,5.60
2018-09-18T16:15:21.085Z,5.70
2018-09-18T16:17:49.326Z,5.37
2018-09-18T16:20:17.577Z,4.90
2018-09-18T16:22:45.864Z,5.40
2018-09-18T16:25:14.092Z,5.27
2018-09-18T16:27:42.361Z,5.20
2018-09-18T16:30:10.624Z,5.27
2018-09-18T16:32:38.958Z,5.80
2018-09-18T16:35:07.174Z,5.10
2018-09-18T16:37:35.442Z,5.67
2018-09-18T16:40:04.011Z,5.33
2018-09-18T16:42:32.395Z,5.07
2018-09-18T16:45:00.714Z,5.50
2018-09-18T16:47:28.974Z,5.53
2018-09-18T16:49:57.272Z,5.43
2018-09-18T16:52:25.534Z,5.93
2018-09-18T16:54:53.903Z,5.73
2018-09-18T16:57:22.103Z,5.40
2018-09-18T16:59:50.485Z,5.70
2018-09-18T17:02:18.839Z,5.57
2018-09-18T17:04:47.031Z,5.60
2018-09-18T17:07:15.283Z,5.80
2018-09-18T17:09:43.528Z,5.83
2018-09-18T17:12:11.785Z,5.43
2018-09-18T17:14:40.063Z,5.37
2018-09-18T17:17:08.303Z,5.70
2018-09-18T17:19:36.634Z,5.23
2018-09-18T17:22:04.878Z,5.50
2018-09-18T17:24:33.183Z,5.77
2018-09-18T17:27:01.392Z,5.10
2018-09-18T17:29:29.675Z,5.83
2018-09-18T17:31:57.947Z,6.03
2018-09-18T17:34:26.352Z,5.53
2018-09-18T17:36:54.542Z,5.30
2018-09-18T17:39:22.940Z,5.63
2018-09-18T17:41:51.296Z,5.30
2018-09-18T17:44:19.713Z,5.17
2018-09-18T17:46:47.974Z,5.07
2018-09-18T17:49:16.267Z,5.57
2018-09-18T17:51:44.600Z,5.03
2018-09-18T17:54:13.033Z,5.13
2018-09-18T17:56:41.358Z,4.97
2018-09-18T17:59:09.686Z,4.97
2018-09-18T18:01:37.982Z,5.20
2018-09-18T18:04:06.324Z,5.43
2018-09-18T18:06:34.621Z,5.23
2018-09-18T18:09:03.310Z,5.43
2018-09-18T18:11:31.615Z,5.37
2018-09-18T18:13:59.910Z,5.57
2018-09-18T18:16:28.185Z,5.17
2018-09-18T18:18:56.446Z,5.27
2018-09-18T18:21:24.766Z,5.30
2018-09-18T18:23:53.151Z,5.43
2018-09-18T18:26:21.452Z,5.33
2018-09-18T18:28:49.804Z,5.47
2018-09-18T18:31:18.104Z,5.53
2018-09-18T18:33:46.600Z,5.37
2018-09-18T18:36:14.842Z,5.87
2018-09-18T18:38:43.168Z,5.60
2018-09-18T18:41:11.439Z,5.67
2018-09-18T18:43:39.747Z,5.50
2018-09-18T18:46:08.004Z,5.67
2018-09-18T18:48:36.353Z,5.80
2018-09-18T18:51:04.580Z,5.70
2018-09-18T18:53:32.886Z,5.80
2018-09-18T18:56:01.194Z,6.17
2018-09-18T18:58:29.469Z,6.10
2018-09-18T19:00:57.732Z,5.33
2018-09-18T19:03:25.981Z,5.43
2018-09-18T19:05:54.222Z,5.80
2018-09-18T19:08:22.485Z,6.37
2018-09-18T19:10:50.854Z,5.30
2018-09-18T19:13:19.318Z,5.83
2018-09-18T19:15:48.057Z,5.27
2018-09-18T19:18:16.315Z,5.63
2018-09-18T19:20:44.612Z,5.30
2018-09-18T19:23:12.890Z,6.03
2018-09-18T19:25:41.375Z,5.43
2018-09-18T19:28:09.803Z,5.40
2018-09-18T19:30:38.073Z,5.70
2018-09-18T19:33:06.418Z,5.50
2018-09-18T19:35:34.627Z,5.90
2018-09-18T19:38:02.916Z,5.60
2018-09-18T19:40:31.282Z,5.53
2018-09-18T19:42:59.675Z,6.00
2018-09-18T19:45:28.051Z,5.53
2018-09-18T19:47:56.318Z,5.57
2018-09-18T19:50:24.722Z,5.20
2018-09-18T19:52:53.051Z,5.53
2018-09-18T19:55:21.374Z,5.77
2018-09-18T19:57:49.649Z,5.40
2018-09-18T20:00:18.014Z,5.23
2018-09-18T20:02:46.431Z,10.77
2018-09-18T20:05:14.880Z,13.43
2018-09-18T20:07:43.242Z,13.23
2018-09-18T20:10:11.521Z,13.13
2018-09-18T20:12:39.855Z,5.00
2018-09-18T20:15:08.295Z,6.40
2018-09-18T20:17:36.666Z,5.47
2018-09-18T20:20:04.934Z,5.27
2018-09-18T20:22:33.203Z,5.77
2018-09-18T20:25:01.527Z,6.33
2018-09-18T20:27:29.770Z,5.53
2018-09-18T20:29:58.065Z,5.50
2018-09-18T20:32:26.441Z,6.10
2018-09-18T20:34:54.773Z,5.50
2018-09-18T20:37:23.031Z,5.40
2018-09-18T20:39:51.316Z,5.43
2018-09-18T20:42:19.585Z,5.27
2018-09-18T20:44:47.953Z,6.13
2018-09-18T20:47:17.437Z,5.43
2018-09-18T20:49:45.724Z,5.30
2018-09-18T20:52:14.035Z,5.53
2018-09-18T20:54:42.346Z,5.47
2018-09-18T20:57:10.717Z,5.60
2018-09-18T20:59:39.017Z,5.80
2018-09-18T21:02:07.397Z,5.73
2018-09-18T21:04:35.792Z,5.37
2018-09-18T21:07:04.074Z,5.37
2018-09-18T21:09:32.721Z,5.37
2018-09-18T21:12:01.040Z,6.00
2018-09-18T21:14:29.463Z,5.67
2018-09-18T21:16:57.775Z,6.10
2018-09-18T21:19:26.097Z,5.10
2018-09-18T21:21:54.779Z,5.03
2018-09-18T21:24:23.134Z,5.40
2018-09-18T21:26:51.502Z,5.73
2018-09-18T21:29:20.055Z,5.97
2018-09-18T21:31:48.333Z,6.27
2018-09-18T21:34:16.667Z,6.27
2018-09-18T21:36:45.093Z,5.70
2018-09-18T21:39:13.558Z,5.83
2018-09-18T21:41:41.822Z,5.43
2018-09-18T21:44:10.164Z,5.90
2018-09-18T21:46:38.430Z,5.93
2018-09-18T21:49:06.850Z,6.20
2018-09-18T21:51:36.952Z,6.13
2018-09-18T21:54:05.249Z,6.80
2018-09-18T21:56:33.521Z,6.50
2018-09-18T21:59:01.816Z,6.83
2018-09-18T22:01:30.294Z,6.40
2018-09-18T22:03:58.568Z,6.87
2018-09-18T22:06:26.896Z,6.50
2018-09-18T22:08:55.266Z,6.60
2018-09-18T22:11:23.571Z,6.70
2018-09-18T22:13:51.850Z,6.70
2018-09-18T22:16:20.130Z,6.93
2018-09-18T22:18:48.442Z,7.57
2018-09-18T22:21:16.688Z,7.47
2018-09-18T22:23:44.959Z,7.30
2018-09-18T22:26:13.353Z,7.60
2018-09-18T22:28:41.614Z,8.00
2018-09-18T22:31:09.904Z,8.13
2018-09-18T22:33:38.280Z,7.87
2018-09-18T22:36:06.567Z,7.77
2018-09-18T22:38:34.852Z,7.67
2018-09-18T22:41:03.249Z,8.03
2018-09-18T22:43:31.571Z,8.00
2018-09-18T22:45:59.846Z,8.17
2018-09-18T22:48:28.129Z,7.97
2018-09-18T22:50:56.411Z,7.87
2018-09-18T22:53:24.698Z,7.73
2018-09-18T22:55:53.010Z,8.00
2018-09-18T22:58:21.281Z,8.60
2018-09-18T23:00:49.563Z,8.13
2018-09-18T23:03:17.928Z,8.47
2018-09-18T23:05:46.219Z,8.90
2018-09-18T23:08:14.499Z,8.40
2018-09-18T23:10:42.770Z,9.20
2018-09-18T23:13:11.049Z,8.83
2018-09-18T23:15:39.418Z,8.70
2018-09-18T23:18:07.926Z,8.63
2018-09-18T23:20:36.313Z,8.80
2018-09-18T23:23:04.561Z,9.90
2018-09-18T23:25:32.829Z,9.57
2018-09-18T23:28:01.135Z,9.43
2018-09-18T23:30:29.431Z,8.97
2018-09-18T23:32:57.772Z,9.80
2018-09-18T23:35:26.028Z,9.43
2018-09-18T23:37:54.319Z,9.50
2018-09-18T23:40:22.566Z,9.87
2018-09-18T23:42:50.876Z,10.03
2018-09-18T23:45:19.146Z,9.73
2018-09-18T23:47:47.465Z,10.60
2018-09-18T23:50:15.756Z,10.63
2018-09-18T23:52:44.034Z,10.17
2018-09-18T23:55:12.300Z,10.20
2018-09-18T23:57:40.579Z,10.60
